ADDS METAR Data INFO
IDs: Format: Raw Decoded Include TAF

Data at: 0239 UTC 17 Jan 2018

KAFP 170215Z AUTO 16006KT 10SM SCT120 05/M05 A3032 RMK AO2 T00501053
KAFP 170155Z AUTO 16005KT 10SM BKN120 04/M05 A3032 RMK AO2 T00441050
KAFP 170135Z AUTO 15004KT 10SM BKN120 04/M05 A3032 RMK AO2 T00371046
KAFP 170115Z AUTO 14004KT 10SM SCT120 03/M05 A3033 RMK AO2 T00261047
KAFP 170055Z AUTO 00000KT 10SM CLR 03/M05 A3033 RMK AO2 T00271046
KAFP 170035Z AUTO 00000KT 10SM CLR 02/M04 A3033 RMK AO2 T00241043
KAFP 170015Z AUTO 00000KT 10SM CLR 03/M04 A3034 RMK AO2 T00251042
KAFP 162355Z AUTO 00000KT 10SM CLR 03/M04 A3034 RMK AO2 T00321045 10095 20026
KAFP 162335Z AUTO 00000KT 10SM CLR 03/M05 A3034 RMK AO2 T00341046
KAFP 162315Z AUTO 00000KT 10SM CLR 04/M05 A3034 RMK AO2 T00361046
KAFP 162255Z AUTO 00000KT 10SM CLR 05/M05 A3034 RMK AO2 T00501051
KAFP 162235Z AUTO 00000KT 10SM CLR 06/M05 A3034 RMK AO2 T00571050
KAFP 162215Z AUTO 00000KT 10SM CLR 06/M06 A3035 RMK AO2 T00621057
KAFP 162155Z AUTO 16003KT 10SM CLR 08/M06 A3035 RMK AO2 T00791061
KAFP 162135Z AUTO 16003KT 10SM CLR 09/M06 A3035 RMK AO2 T00861064
KAFP 162115Z AUTO 16004KT 10SM CLR 09/M06 A3035 RMK AO2 T00901065
KAFP 162055Z AUTO 18003KT 10SM CLR 09/M07 A3034 RMK AO2 T00931069
KAFP 162035Z AUTO 00000KT 10SM CLR 09/M07 A3035 RMK AO2 T00911070
KAFP 162015Z AUTO 00000KT 10SM CLR 09/M08 A3035 RMK AO2 T00871076
KAFP 161955Z AUTO 00000KT 10SM CLR 09/M08 A3035 RMK AO2 T00851079
KAFP 161935Z AUTO 00000KT 10SM CLR 09/M08 A3036 RMK AO2 T00851080
KAFP 161915Z AUTO 28004KT 10SM CLR 08/M08 A3037 RMK AO2 T00821083
KAFP 161855Z AUTO 00000KT 10SM CLR 08/M08 A3038 RMK AO2 T00821080
KAFP 161815Z AUTO 00000KT 10SM CLR 08/M08 A3040 RMK AO2 T00791084
KAFP 161755Z AUTO 00000KT 10SM CLR 08/M08 A3041 RMK AO2 T00801083 10081 21090
KAFP 161735Z AUTO 00000KT 10SM CLR 08/M08 A3042 RMK AO2 T00791082
KAFP 161715Z AUTO 00000KT 10SM CLR 08/M09 A3044 RMK AO2 T00751087
KAFP 161655Z AUTO 00000KT 10SM CLR 07/M08 A3045 RMK AO2 T00651083
KAFP 161635Z AUTO 00000KT 10SM CLR 06/M08 A3047 RMK AO2 T00581084
KAFP 161615Z AUTO 00000KT 10SM CLR 05/M08 A3048 RMK AO2 T00481082
KAFP 161555Z AUTO 00000KT 10SM CLR 03/M07 A3049 RMK AO2 T00341074
KAFP 161535Z AUTO 00000KT 10SM CLR 02/M07 A3049 RMK AO2 T00221067
KAFP 161515Z AUTO 00000KT 10SM CLR 01/M07 A3049 RMK AO2 T00091068
KAFP 161455Z AUTO 00000KT 10SM CLR 00/M07 A3050 RMK AO2 T10021070
KAFP 161435Z AUTO 00000KT 10SM CLR M02/M07 A3050 RMK AO2 T10171069
KAFP 161415Z AUTO 00000KT 10SM CLR M03/M07 A3049 RMK AO2 T10271070
KAFP 161355Z AUTO 00000KT 10SM CLR M04/M07 A3049 RMK AO2 T10411075
KAFP 161335Z AUTO 00000KT 10SM CLR M05/M08 A3047 RMK AO2 T10521079
KAFP 161315Z AUTO 00000KT 10SM CLR M06/M08 A3047 RMK AO2 T10631085
KAFP 161255Z AUTO 00000KT 10SM CLR M08/M09 A3047 RMK AO2 T10771095
KAFP 161235Z AUTO 00000KT 10SM CLR M09/M11 A3046 RMK AO2 T10901108
KAFP 161215Z AUTO 00000KT 10SM CLR M08/M10 A3046 RMK AO2 T10811102
KAFP 161155Z AUTO 00000KT 10SM CLR M08/M10 A3046 RMK AO2 T10791099 11060 21088
KAFP 161135Z AUTO 00000KT 10SM CLR M08/M10 A3045 RMK AO2 T10791099
KAFP 161115Z AUTO 00000KT 10SM CLR M08/M10 A3045 RMK AO2 T10831100
KAFP 161055Z AUTO 00000KT 10SM CLR M08/M10 A3045 RMK AO2 T10851104
KAFP 161035Z AUTO 00000KT 10SM CLR M08/M10 A3046 RMK AO2 T10801098
KAFP 161015Z AUTO 00000KT 10SM CLR M08/M09 A3046 RMK AO2 T10771093
KAFP 160955Z AUTO 00000KT 10SM CLR M07/M09 A3046 RMK AO2 T10721087
KAFP 160935Z AUTO 00000KT 10SM CLR M08/M09 A3046 RMK AO2 T10761093
KAFP 160915Z AUTO 00000KT 10SM CLR M08/M10 A3046 RMK AO2 T10781098
KAFP 160855Z AUTO 00000KT 10SM CLR M08/M09 A3046 RMK AO2 T10761095
KAFP 160835Z AUTO 00000KT 10SM CLR M07/M09 A3046 RMK AO2 T10711093
KAFP 160815Z AUTO 00000KT 10SM CLR M07/M09 A3046 RMK AO2 T10751095
KAFP 160755Z AUTO 00000KT 10SM CLR M07/M09 A3046 RMK AO2 T10701089
KAFP 160735Z AUTO 00000KT 10SM CLR M07/M09 A3047 RMK AO2 T10681087
KAFP 160715Z AUTO 00000KT 10SM CLR M07/M09 A3046 RMK AO2 T10661086
KAFP 160655Z AUTO 00000KT 10SM CLR M06/M09 A3046 RMK AO2 T10651087
KAFP 160635Z AUTO 00000KT 10SM CLR M07/M09 A3046 RMK AO2 T10661092
KAFP 160615Z AUTO 00000KT 10SM CLR M06/M08 A3046 RMK AO2 T10601085
KAFP 160555Z AUTO 00000KT 10SM CLR M06/M09 A3046 RMK AO2 T10631088 11018 21063 400461082
KAFP 160535Z AUTO 00000KT 10SM CLR M06/M08 A3047 RMK AO2 T10611084
KAFP 160515Z AUTO 00000KT 10SM CLR M06/M09 A3047 RMK AO2 T10581089
KAFP 160455Z AUTO 00000KT 10SM CLR M06/M09 A3047 RMK AO2 T10601092
KAFP 160435Z AUTO 00000KT 10SM CLR M06/M09 A3047 RMK AO2 T10621092
KAFP 160415Z AUTO 00000KT 10SM CLR M05/M08 A3048 RMK AO2 T10511083
KAFP 160355Z AUTO 00000KT 10SM CLR M05/M09 A3049 RMK AO2 T10541088
KAFP 160335Z AUTO 00000KT 10SM CLR M05/M09 A3048 RMK AO2 T10531089
KAFP 160315Z AUTO 00000KT 10SM CLR M04/M09 A3048 RMK AO2 T10451091
KAFP 160255Z AUTO 00000KT 10SM CLR M04/M09 A3047 RMK AO2 T10421090
KAFP 160235Z AUTO 00000KT 10SM CLR M04/M09 A3046 RMK AO2 T10411090
KAFP 160215Z AUTO 00000KT 10SM CLR M04/M09 A3046 RMK AO2 T10451094
KAFP 160155Z AUTO 00000KT 10SM CLR M04/M09 A3046 RMK AO2 T10401093
KAFP 160135Z AUTO 00000KT 10SM CLR M04/M09 A3047 RMK AO2 T10371094
KAFP 160115Z AUTO 00000KT 10SM CLR M03/M10 A3048 RMK AO2 T10301096
KAFP 160055Z AUTO 00000KT 10SM CLR M03/M09 A3047 RMK AO2 T10311095
KAFP 160035Z AUTO 00000KT 10SM CLR M02/M09 A3047 RMK AO2 T10251089
KAFP 160015Z AUTO 00000KT 10SM CLR M03/M10 A3046 RMK AO2 T10261100
KAFP 152355Z AUTO 00000KT 10SM CLR M02/M10 A3046 RMK AO2 T10181102 10046 21018
KAFP 152335Z AUTO 00000KT 10SM CLR M01/M09 A3045 RMK AO2 T10111093
KAFP 152315Z AUTO 00000KT 10SM CLR 00/M11 A3045 RMK AO2 T00011110
KAFP 152255Z AUTO 00000KT 10SM CLR 01/M11 A3044 RMK AO2 T00051112
KAFP 152235Z AUTO 00000KT 10SM CLR 03/M13 A3045 RMK AO2 T00271130
KAFP 152215Z AUTO 00000KT 10SM CLR 03/M13 A3044 RMK AO2 T00291131
KAFP 152155Z AUTO 00000KT 10SM CLR 04/M13 A3044 RMK AO2 T00351135
KAFP 152135Z AUTO 32003KT 10SM CLR 04/M13 A3044 RMK AO2 T00411133
KAFP 152115Z AUTO 00000KT 10SM CLR 04/M14 A3044 RMK AO2 T00411139
KAFP 152055Z AUTO 28003KT 10SM CLR 05/M14 A3045 RMK AO2 T00451138
KAFP 152035Z AUTO 00000KT 10SM CLR 04/M14 A3045 RMK AO2 T00411142
KAFP 152015Z AUTO 00000KT 10SM CLR 04/M14 A3045 RMK AO2 T00421144
KAFP 151955Z AUTO 30005KT 10SM CLR 04/M14 A3044 RMK AO2 T00421143
KAFP 151935Z AUTO 36003KT 10SM CLR 04/M14 A3044 RMK AO2 T00381142
KAFP 151915Z AUTO 01005KT 10SM CLR 04/M14 A3044 RMK AO2 T00361140
KAFP 151855Z AUTO 30004KT 10SM CLR 03/M14 A3045 RMK AO2 T00301144
KAFP 151835Z AUTO 32005KT 10SM CLR 03/M15 A3045 RMK AO2 T00251150
KAFP 151815Z AUTO 00000KT 10SM CLR 02/M16 A3047 RMK AO2 T00181165
KAFP 151755Z AUTO 30007KT 10SM CLR 01/M17 A3049 RMK AO2 T00141168 10021 21076
KAFP 151735Z AUTO 33004KT 10SM CLR 01/M16 A3051 RMK AO2 T00121163
KAFP 151715Z AUTO 31004KT 10SM CLR 01/M16 A3052 RMK AO2 T00081160
KAFP 151655Z AUTO 33004KT 10SM CLR 00/M15 A3053 RMK AO2 T00001154
KAFP 151635Z AUTO 30004KT 10SM CLR 00/M15 A3053 RMK AO2 T10011155
KAFP 151615Z AUTO 32005KT 10SM CLR M01/M15 A3056 RMK AO2 T10081152
KAFP 151555Z AUTO 01003KT 10SM CLR M01/M15 A3055 RMK AO2 T10131153
KAFP 151535Z AUTO 02004KT 10SM CLR M02/M15 A3057 RMK AO2 T10201155
KAFP 151515Z AUTO 33007KT 310V020 10SM CLR M02/M15 A3057 RMK AO2 T10251147
KAFP 151455Z AUTO 02005KT 10SM CLR M03/M14 A3056 RMK AO2 T10301145